createdAt,value
2022-12-01T00:01:19.389Z,102751.50
2022-12-01T00:03:48.221Z,102747.78
2022-12-01T00:06:17.866Z,102744.03
2022-12-01T00:09:08.110Z,102752.16
2022-12-01T00:11:37.352Z,102752.28
2022-12-01T00:14:06.830Z,102754.22
2022-12-01T00:16:36.233Z,102756.72
2022-12-01T00:19:03.006Z,102757.75
2022-12-01T00:21:29.574Z,102753.22
2022-12-01T00:23:57.641Z,102760.41
2022-12-01T00:26:25.229Z,102751.38
2022-12-01T00:28:53.561Z,102753.13
2022-12-01T00:31:20.797Z,102754.72
2022-12-01T00:33:47.437Z,102742.38
2022-12-01T00:36:14.032Z,102745.22
2022-12-01T00:38:40.545Z,102756.94
2022-12-01T00:41:07.665Z,102745.06
2022-12-01T00:43:34.192Z,102745.16
2022-12-01T00:46:00.960Z,102748.72
2022-12-01T00:48:27.955Z,102737.31
2022-12-01T00:50:55.360Z,102738.19
2022-12-01T00:53:22.140Z,102756.78
2022-12-01T00:55:49.098Z,102756.78
2022-12-01T00:58:15.708Z,102754.31
2022-12-01T01:00:45.248Z,102747.06
2022-12-01T01:03:11.833Z,102742.59
2022-12-01T01:05:39.925Z,102745.22
2022-12-01T01:08:10.006Z,102757.75
2022-12-01T01:10:44.615Z,102752.34
2022-12-01T01:13:12.140Z,102748.88
2022-12-01T01:15:38.778Z,102758.63
2022-12-01T01:18:06.044Z,102747.28
2022-12-01T01:20:35.226Z,102756.94
2022-12-01T01:23:01.792Z,102761.34
2022-12-01T01:25:31.246Z,102767.78
2022-12-01T01:28:00.080Z,102773.97
2022-12-01T01:30:26.819Z,102773.84
2022-12-01T01:32:58.322Z,102769.56
2022-12-01T01:35:24.848Z,102772.34
2022-12-01T01:37:51.876Z,102792.94
2022-12-01T01:40:18.808Z,102778.47
2022-12-01T01:42:45.628Z,102772.41
2022-12-01T01:45:24.503Z,102776.00
2022-12-01T01:47:53.797Z,102774.97
2022-12-01T01:50:26.736Z,102773.19
2022-12-01T01:52:59.729Z,102782.16
2022-12-01T01:55:27.359Z,102758.34
2022-12-01T01:57:54.048Z,102789.31
2022-12-01T02:00:22.235Z,102768.75
2022-12-01T02:02:54.339Z,102760.91
2022-12-01T02:05:28.014Z,102779.38
2022-12-01T02:07:57.238Z,102768.75
2022-12-01T02:10:51.599Z,102786.47
2022-12-01T02:13:27.802Z,102783.81
2022-12-01T02:16:11.556Z,102781.13
2022-12-01T02:18:59.715Z,102778.63
2022-12-01T02:21:52.883Z,102792.81
2022-12-01T02:24:54.077Z,102784.94
2022-12-01T02:27:56.188Z,102782.09
2022-12-01T02:30:51.218Z,102773.06
2022-12-01T02:33:29.470Z,102767.13
2022-12-01T02:36:23.130Z,102767.94
2022-12-01T02:39:07.239Z,102771.63
2022-12-01T02:42:03.501Z,102770.63
2022-12-01T02:44:39.002Z,102778.63
2022-12-01T02:47:12.963Z,102774.19
2022-12-01T02:49:45.156Z,102761.84
2022-12-01T02:52:14.258Z,102767.13
2022-12-01T02:54:42.869Z,102779.44
2022-12-01T02:57:12.692Z,102777.53
2022-12-01T02:59:42.485Z,102773.19
2022-12-01T03:02:42.148Z,102780.25
2022-12-01T03:05:23.995Z,102782.09
2022-12-01T03:08:04.132Z,102782.97
2022-12-01T03:10:52.677Z,102780.25
2022-12-01T03:13:43.208Z,102790.22
2022-12-01T03:16:22.285Z,102777.03
2022-12-01T03:19:00.434Z,102780.31
2022-12-01T03:21:37.860Z,102776.81
2022-12-01T03:24:09.137Z,102778.63
2022-12-01T03:26:37.696Z,102769.84
2022-12-01T03:29:20.528Z,102776.00
2022-12-01T03:31:55.193Z,102773.34
2022-12-01T03:34:30.550Z,102764.50
2022-12-01T03:37:02.141Z,102771.63
2022-12-01T03:39:35.235Z,102766.34
2022-12-01T03:42:20.649Z,102764.72
2022-12-01T03:45:01.139Z,102775.25
2022-12-01T03:47:32.519Z,102788.66
2022-12-01T03:50:00.545Z,102786.91
2022-12-01T03:53:06.108Z,102780.41
2022-12-01T03:55:40.829Z,102769.69
2022-12-01T03:58:17.573Z,102778.63
2022-12-01T04:00:46.405Z,102783.25
2022-12-01T04:03:23.068Z,102777.09
2022-12-01T04:05:49.757Z,102781.41
2022-12-01T04:08:16.300Z,102766.47
2022-12-01T04:10:43.279Z,102797.44
2022-12-01T04:13:16.821Z,102798.44
2022-12-01T04:15:43.734Z,102795.78
2022-12-01T04:18:12.552Z,102788.16
2022-12-01T04:20:39.096Z,102796.81
2022-12-01T04:23:05.667Z,102777.69
2022-12-01T04:25:32.238Z,102789.75
2022-12-01T04:27:58.766Z,102796.81
2022-12-01T04:30:25.374Z,102796.00
2022-12-01T04:32:52.006Z,102798.72
2022-12-01T04:35:18.583Z,102789.03
2022-12-01T04:37:47.446Z,102789.94
2022-12-01T04:40:14.105Z,102787.31
2022-12-01T04:42:40.681Z,102783.63
2022-12-01T04:45:07.792Z,102780.97
2022-12-01T04:47:34.305Z,102784.53
2022-12-01T04:50:03.337Z,102782.69
2022-12-01T04:52:35.090Z,102792.56
2022-12-01T04:55:04.605Z,102796.16
2022-12-01T04:57:31.156Z,102779.31
2022-12-01T04:59:57.757Z,102780.75
2022-12-01T05:02:24.379Z,102785.31
2022-12-01T05:04:51.012Z,102782.69
2022-12-01T05:07:18.247Z,102774.75
2022-12-01T05:09:44.793Z,102751.13
2022-12-01T05:12:13.670Z,102775.56
2022-12-01T05:14:40.188Z,102779.16
2022-12-01T05:17:06.725Z,102783.63
2022-12-01T05:19:51.864Z,102773.81
2022-12-01T05:22:26.936Z,102782.75
2022-12-01T05:25:07.487Z,102793.66
2022-12-01T05:27:34.033Z,102792.72
2022-12-01T05:30:00.535Z,102799.00
2022-12-01T05:32:27.339Z,102784.94
2022-12-01T05:34:53.821Z,102783.19
2022-12-01T05:37:20.371Z,102782.81
2022-12-01T05:39:47.232Z,102793.59
2022-12-01T05:42:13.914Z,102787.66
2022-12-01T05:44:40.458Z,102790.09
2022-12-01T05:47:07.040Z,102780.41
2022-12-01T05:49:33.524Z,102800.84
2022-12-01T05:52:00.110Z,102800.91
2022-12-01T05:54:31.658Z,102790.38
2022-12-01T05:56:58.270Z,102798.44
2022-12-01T05:59:26.873Z,102810.88
2022-12-01T06:01:53.555Z,102804.56
2022-12-01T06:04:20.289Z,102806.19
2022-12-01T06:06:48.916Z,102800.09
2022-12-01T06:09:18.316Z,102782.25
2022-12-01T06:11:47.192Z,102797.25
2022-12-01T06:14:15.609Z,102804.56
2022-12-01T06:16:42.280Z,102810.66
2022-12-01T06:19:08.817Z,102813.44
2022-12-01T06:21:35.367Z,102800.09
2022-12-01T06:24:01.912Z,102803.56
2022-12-01T06:26:28.429Z,102810.56
2022-12-01T06:28:58.437Z,102809.56
2022-12-01T06:31:24.963Z,102808.66
2022-12-01T06:33:51.591Z,102808.59
2022-12-01T06:36:18.313Z,102803.41
2022-12-01T06:38:44.980Z,102819.50
2022-12-01T06:41:11.588Z,102808.66
2022-12-01T06:43:38.313Z,102822.00
2022-12-01T06:46:05.846Z,102802.50
2022-12-01T06:48:32.707Z,102814.97
2022-12-01T06:51:02.281Z,102816.56
2022-12-01T06:53:29.145Z,102824.72
2022-12-01T06:56:03.722Z,102821.13
2022-12-01T06:58:32.881Z,102824.72
2022-12-01T07:01:00.009Z,102828.59
2022-12-01T07:03:27.425Z,102825.97
2022-12-01T07:05:59.280Z,102836.66
2022-12-01T07:08:31.336Z,102834.16
2022-12-01T07:11:10.141Z,102832.25
2022-12-01T07:13:40.571Z,102843.03
2022-12-01T07:16:10.493Z,102846.69
2022-12-01T07:19:09.938Z,102847.66
2022-12-01T07:21:41.026Z,102838.72
2022-12-01T07:24:22.671Z,102853.81
2022-12-01T07:26:50.816Z,102841.50
2022-12-01T07:29:19.724Z,102843.09
2022-12-01T07:31:50.411Z,102850.44
2022-12-01T07:34:18.352Z,102855.78
2022-12-01T07:36:49.683Z,102857.69
2022-12-01T07:39:16.325Z,102837.38
2022-12-01T07:41:43.082Z,102838.34
2022-12-01T07:44:11.177Z,102859.38
2022-12-01T07:46:40.386Z,102840.91
2022-12-01T07:49:08.080Z,102861.19
2022-12-01T07:51:35.114Z,102857.84
2022-12-01T07:54:03.893Z,102857.63
2022-12-01T07:56:33.916Z,102857.84
2022-12-01T07:59:02.771Z,102862.09
2022-12-01T08:01:30.119Z,102867.00
2022-12-01T08:03:59.215Z,102854.81
2022-12-01T08:06:26.834Z,102856.88
2022-12-01T08:08:53.344Z,102872.59
2022-12-01T08:11:26.048Z,102875.47
2022-12-01T08:13:53.928Z,102877.38
2022-12-01T08:16:22.932Z,102874.88
2022-12-01T08:18:50.372Z,102879.00
2022-12-01T08:21:19.222Z,102875.03
2022-12-01T08:23:46.055Z,102889.31
2022-12-01T08:26:15.333Z,102890.06
2022-12-01T08:28:42.983Z,102882.88
2022-12-01T08:31:22.027Z,102872.84
2022-12-01T08:33:50.630Z,102885.09
2022-12-01T08:36:17.766Z,102882.41
2022-12-01T08:38:45.842Z,102885.91
2022-12-01T08:41:13.536Z,102893.00
2022-12-01T08:43:57.251Z,102884.94
2022-12-01T08:46:26.106Z,102893.81
2022-12-01T08:48:55.135Z,102881.41
2022-12-01T08:51:21.944Z,102890.22
2022-12-01T08:53:49.789Z,102884.78
2022-12-01T08:56:24.836Z,102892.91
2022-12-01T08:58:51.786Z,102889.34
2022-12-01T09:01:19.470Z,102885.63
2022-12-01T09:03:46.496Z,102890.06
2022-12-01T09:06:13.024Z,102897.19
2022-12-01T09:08:40.045Z,102883.06
2022-12-01T09:11:17.964Z,102890.06
2022-12-01T09:13:49.944Z,102897.13
2022-12-01T09:16:19.773Z,102895.28
2022-12-01T09:18:47.859Z,102898.06
2022-12-01T09:21:17.490Z,102898.78
2022-12-01T09:23:44.980Z,102883.06
2022-12-01T09:26:13.871Z,102902.00
2022-12-01T09:28:41.032Z,102909.94
2022-12-01T09:31:10.548Z,102899.84
2022-12-01T09:33:38.213Z,102904.00
2022-12-01T09:36:06.577Z,102897.63
2022-12-01T09:38:38.738Z,102908.66
2022-12-01T09:41:27.191Z,102909.47
2022-12-01T09:44:12.170Z,102907.69
2022-12-01T09:46:52.397Z,102907.63
2022-12-01T09:49:27.377Z,102893.03
2022-12-01T09:52:18.645Z,102897.19
2022-12-01T09:54:50.364Z,102905.19
2022-12-01T09:57:33.961Z,102900.25
2022-12-01T10:00:35.033Z,102892.66
2022-12-01T10:03:21.457Z,102889.09
2022-12-01T10:06:29.031Z,102890.66
2022-12-01T10:09:17.287Z,102882.53
2022-12-01T10:11:46.141Z,102871.19
2022-12-01T10:14:20.167Z,102885.97
2022-12-01T10:17:15.991Z,102877.78
2022-12-01T10:19:47.255Z,102880.00
2022-12-01T10:22:26.921Z,102867.06
2022-12-01T10:25:13.690Z,102869.25
2022-12-01T10:28:23.989Z,102867.97
2022-12-01T10:30:52.681Z,102878.22
2022-12-01T10:33:30.545Z,102870.50
2022-12-01T10:35:57.844Z,102851.09
2022-12-01T10:38:34.487Z,102864.25
2022-12-01T10:41:04.378Z,102858.88
2022-12-01T10:43:50.359Z,102852.66
2022-12-01T10:46:25.201Z,102858.88
2022-12-01T10:48:57.498Z,102844.03
2022-12-01T10:51:28.109Z,102862.00
2022-12-01T10:54:00.102Z,102853.75
2022-12-01T10:56:29.215Z,102844.97
2022-12-01T10:58:58.476Z,102849.53
2022-12-01T11:01:27.618Z,102847.94
2022-12-01T11:04:08.881Z,102853.28
2022-12-01T11:06:37.561Z,102854.66
2022-12-01T11:09:14.694Z,102853.28
2022-12-01T11:11:41.452Z,102845.72
2022-12-01T11:14:19.829Z,102849.72
2022-12-01T11:16:48.648Z,102847.47
2022-12-01T11:19:34.610Z,102851.56
2022-12-01T11:22:12.937Z,102821.84
2022-12-01T11:24:42.322Z,102840.84
2022-12-01T11:27:16.682Z,102826.97
2022-12-01T11:29:43.782Z,102840.88
2022-12-01T11:32:17.865Z,102831.56
2022-12-01T11:34:51.524Z,102834.50
2022-12-01T11:37:21.662Z,102826.13
2022-12-01T11:39:49.711Z,102830.28
2022-12-01T11:42:16.475Z,102826.72
2022-12-01T11:45:08.062Z,102813.94
2022-12-01T11:47:34.640Z,102828.28
2022-12-01T11:50:22.514Z,102821.19
2022-12-01T11:52:49.115Z,102815.66
2022-12-01T11:55:15.636Z,102825.91
2022-12-01T11:57:44.732Z,102817.47
2022-12-01T12:00:26.948Z,102818.63
2022-12-01T12:03:20.243Z,102819.50
2022-12-01T12:06:11.633Z,102816.09
2022-12-01T12:08:57.753Z,102804.31
2022-12-01T12:11:30.147Z,102802.66
2022-12-01T12:14:02.615Z,102806.31
2022-12-01T12:16:51.916Z,102809.13
2022-12-01T12:20:06.037Z,102807.31
2022-12-01T12:22:41.764Z,102804.84
2022-12-01T12:25:23.123Z,102806.88
2022-12-01T12:28:19.604Z,102809.91
2022-12-01T12:31:05.722Z,102809.06
2022-12-01T12:33:42.996Z,102807.28
2022-12-01T12:36:37.845Z,102808.06
2022-12-01T12:39:24.752Z,102805.25
2022-12-01T12:41:55.930Z,102801.06
2022-12-01T12:44:47.653Z,102792.09
2022-12-01T12:47:57.861Z,102787.56
2022-12-01T12:50:51.972Z,102787.56
2022-12-01T12:53:22.351Z,102792.53
2022-12-01T12:55:52.980Z,102796.03
2022-12-01T12:58:26.404Z,102790.34
2022-12-01T13:01:05.311Z,102787.56
2022-12-01T13:03:57.135Z,102793.94
2022-12-01T13:06:36.358Z,102786.56
2022-12-01T13:09:11.446Z,102792.09
2022-12-01T13:11:59.878Z,102777.81
2022-12-01T13:14:36.015Z,102787.56
2022-12-01T13:17:33.612Z,102777.63
2022-12-01T13:20:00.317Z,102780.28
2022-12-01T13:22:36.013Z,102768.88
2022-12-01T13:25:03.823Z,102767.09
2022-12-01T13:27:34.768Z,102765.38
2022-12-01T13:30:02.159Z,102765.19
2022-12-01T13:32:32.093Z,102766.84
2022-12-01T13:35:00.560Z,102761.41
2022-12-01T13:37:36.190Z,102756.06
2022-12-01T13:40:32.643Z,102759.66
2022-12-01T13:43:10.662Z,102757.13
2022-12-01T13:45:46.665Z,102748.00
2022-12-01T13:52:25.029Z,102750.09
2022-12-01T13:55:25.779Z,102760.09
2022-12-01T13:58:00.981Z,102761.22
2022-12-01T14:00:38.009Z,102755.09
2022-12-01T14:06:25.161Z,102751.66
2022-12-01T14:09:03.575Z,102750.69
2022-12-01T14:11:32.577Z,102746.66
2022-12-01T14:14:03.743Z,102757.97
2022-12-01T14:16:51.798Z,102764.28
2022-12-01T14:19:40.678Z,102731.81
2022-12-01T14:22:27.833Z,102757.50
2022-12-01T14:24:55.642Z,102752.41
2022-12-01T14:27:43.205Z,102753.19
2022-12-01T14:30:46.999Z,102759.69
2022-12-01T14:33:47.782Z,102766.16
2022-12-01T14:36:23.874Z,102762.66
2022-12-01T14:38:59.869Z,102760.97
2022-12-01T14:41:28.539Z,102761.13
2022-12-01T14:44:06.636Z,102754.38
2022-12-01T14:47:12.608Z,102756.75
2022-12-01T14:49:50.960Z,102759.63
2022-12-01T14:52:42.719Z,102768.72
2022-12-01T14:55:36.060Z,102764.28
2022-12-01T14:58:16.510Z,102758.22
2022-12-01T15:01:15.264Z,102760.88
2022-12-01T15:04:18.519Z,102758.31
2022-12-01T15:07:00.798Z,102767.41
2022-12-01T15:09:34.148Z,102763.91
2022-12-01T15:12:27.394Z,102767.63
2022-12-01T15:14:55.581Z,102772.91
2022-12-01T15:17:32.679Z,102768.50
2022-12-01T15:19:59.495Z,102760.78
2022-12-01T15:22:31.406Z,102749.53
2022-12-01T15:25:29.311Z,102767.09
2022-12-01T15:28:16.094Z,102766.22
2022-12-01T15:30:46.506Z,102773.53
2022-12-01T15:33:26.802Z,102763.91
2022-12-01T15:35:55.150Z,102770.28
2022-12-01T15:38:28.776Z,102767.41
2022-12-01T15:43:43.578Z,102762.13
2022-12-01T15:46:13.304Z,102767.47
2022-12-01T15:48:43.292Z,102770.28
2022-12-01T15:51:17.474Z,102748.25
2022-12-01T15:53:58.158Z,102770.34
2022-12-01T15:56:27.602Z,102762.44
2022-12-01T15:58:58.964Z,102765.97
2022-12-01T16:01:30.392Z,102755.44
2022-12-01T16:04:25.463Z,102756.53
2022-12-01T16:06:58.395Z,102761.75
2022-12-01T16:09:42.895Z,102767.09
2022-12-01T16:12:09.351Z,102766.13
2022-12-01T16:14:50.021Z,102776.22
2022-12-01T16:17:19.671Z,102758.38
2022-12-01T16:19:46.299Z,102779.88
2022-12-01T16:22:22.406Z,102785.28
2022-12-01T16:24:52.821Z,102772.75
2022-12-01T16:27:30.967Z,102790.72
2022-12-01T16:30:01.611Z,102789.94
2022-12-01T16:32:38.637Z,102776.44
2022-12-01T16:35:07.374Z,102782.81
2022-12-01T16:37:33.992Z,102782.09
2022-12-01T16:40:31.808Z,102774.75
2022-12-01T16:42:58.422Z,102786.47
2022-12-01T16:45:26.780Z,102772.91
2022-12-01T16:47:53.914Z,102777.31
2022-12-01T16:50:41.258Z,102777.38
2022-12-01T16:53:10.302Z,102765.03
2022-12-01T16:55:55.690Z,102780.25
2022-12-01T16:58:25.293Z,102775.81
2022-12-01T17:00:52.837Z,102775.88
2022-12-01T17:03:25.452Z,102766.19
2022-12-01T17:05:53.329Z,102771.56
2022-12-01T17:08:20.348Z,102768.19
2022-12-01T17:10:50.251Z,102778.75
2022-12-01T17:13:23.317Z,102774.34
2022-12-01T17:15:52.820Z,102769.78
2022-12-01T17:18:23.273Z,102765.19
2022-12-01T17:21:01.036Z,102764.63
2022-12-01T17:23:28.307Z,102767.34
2022-12-01T17:25:54.925Z,102768.13
2022-12-01T17:28:21.988Z,102760.06
2022-12-01T17:30:48.590Z,102769.16
2022-12-01T17:33:15.363Z,102761.25
2022-12-01T17:35:41.890Z,102765.66
2022-12-01T17:38:08.672Z,102768.34
2022-12-01T17:40:35.300Z,102770.13
2022-12-01T17:43:06.685Z,102773.78
2022-12-01T17:45:33.862Z,102775.63
2022-12-01T17:48:00.446Z,102782.88
2022-12-01T17:50:26.992Z,102785.50
2022-12-01T17:52:53.577Z,102779.28
2022-12-01T17:55:20.175Z,102784.72
2022-12-01T17:57:46.947Z,102778.41
2022-12-01T18:00:14.271Z,102786.63
2022-12-01T18:02:43.256Z,102781.28
2022-12-01T18:05:12.146Z,102769.03
2022-12-01T18:07:38.927Z,102763.53
2022-12-01T18:10:08.266Z,102772.34
2022-12-01T18:12:34.849Z,102778.56
2022-12-01T18:15:03.666Z,102777.59
2022-12-01T18:17:30.329Z,102761.72
2022-12-01T18:19:56.873Z,102769.63
2022-12-01T18:22:23.424Z,102770.50
2022-12-01T18:24:50.266Z,102773.44
2022-12-01T18:27:19.250Z,102733.03
2022-12-01T18:29:45.756Z,102773.59
2022-12-01T18:32:14.950Z,102768.19
2022-12-01T18:34:44.029Z,102762.91
2022-12-01T18:37:10.745Z,102757.41
2022-12-01T18:39:37.450Z,102748.94
2022-12-01T18:42:04.441Z,102768.41
2022-12-01T18:44:31.120Z,102764.81
2022-12-01T18:46:59.027Z,102767.59
2022-12-01T18:49:25.686Z,102761.38
2022-12-01T18:51:52.303Z,102750.91
2022-12-01T18:54:18.882Z,102764.81
2022-12-01T18:56:45.535Z,102766.59
2022-12-01T18:59:13.605Z,102769.31
2022-12-01T19:01:43.931Z,102764.97
2022-12-01T19:04:11.448Z,102752.50
2022-12-01T19:06:41.801Z,102759.41
2022-12-01T19:09:12.850Z,102769.38
2022-12-01T19:11:40.648Z,102757.13
2022-12-01T19:14:08.269Z,102753.25
2022-12-01T19:16:34.990Z,102753.25
2022-12-01T19:19:01.712Z,102756.03
2022-12-01T19:21:30.725Z,102758.59
2022-12-01T19:23:57.239Z,102761.25
2022-12-01T19:26:25.547Z,102742.06
2022-12-01T19:28:52.263Z,102763.28
2022-12-01T19:31:23.932Z,102760.81
2022-12-01T19:33:52.671Z,102757.00
2022-12-01T19:36:22.118Z,102762.56
2022-12-01T19:38:48.963Z,102759.69
2022-12-01T19:41:16.725Z,102753.72
2022-12-01T19:43:43.346Z,102762.63
2022-12-01T19:46:22.732Z,102769.75
2022-12-01T19:48:55.341Z,102761.91
2022-12-01T19:51:28.277Z,102767.03
2022-12-01T19:53:55.611Z,102767.91
2022-12-01T19:56:22.689Z,102755.41
2022-12-01T19:58:52.262Z,102768.78
2022-12-01T20:01:19.912Z,102757.94
2022-12-01T20:03:50.936Z,102756.19
2022-12-01T20:06:20.186Z,102750.13
2022-12-01T20:08:53.213Z,102762.25
2022-12-01T20:11:19.966Z,102759.63
2022-12-01T20:13:47.512Z,102759.53
2022-12-01T20:16:17.087Z,102765.69
2022-12-01T20:18:46.487Z,102768.69
2022-12-01T20:21:19.650Z,102758.19
2022-12-01T20:23:58.812Z,102772.31
2022-12-01T20:26:31.057Z,102776.47
2022-12-01T20:29:01.209Z,102777.25
2022-12-01T20:31:32.169Z,102760.34
2022-12-01T20:34:01.365Z,102754.13
2022-12-01T20:36:28.316Z,102755.00
2022-12-01T20:38:55.629Z,102753.47
2022-12-01T20:41:22.675Z,102759.53
2022-12-01T20:43:49.365Z,102758.59
2022-12-01T20:46:19.614Z,102767.69
2022-12-01T20:48:46.228Z,102767.69
2022-12-01T20:51:14.672Z,102750.78
2022-12-01T20:53:59.665Z,102746.22
2022-12-01T20:56:28.253Z,102758.44
2022-12-01T20:58:54.998Z,102747.75
2022-12-01T21:01:22.543Z,102740.63
2022-12-01T21:03:50.990Z,102752.06
2022-12-01T21:06:18.349Z,102745.91
2022-12-01T21:08:46.772Z,102752.13
2022-12-01T21:11:45.088Z,102744.91
2022-12-01T21:15:10.008Z,102745.03
2022-12-01T21:17:49.184Z,102729.78
2022-12-01T21:20:30.226Z,102744.00
2022-12-01T21:23:11.228Z,102741.50
2022-12-01T21:25:39.775Z,102720.38
2022-12-01T21:28:23.656Z,102733.53
2022-12-01T21:30:58.580Z,102713.97
2022-12-01T21:33:34.069Z,102735.44
2022-12-01T21:36:02.724Z,102728.38
2022-12-01T21:38:31.796Z,102724.91
2022-12-01T21:40:58.390Z,102696.88
2022-12-01T21:43:25.891Z,102723.97
2022-12-01T21:45:56.842Z,102726.53
2022-12-01T21:48:26.145Z,102713.13
2022-12-01T21:51:11.793Z,102712.41
2022-12-01T21:53:39.344Z,102708.63
2022-12-01T21:56:12.891Z,102707.69
2022-12-01T21:58:39.460Z,102704.19
2022-12-01T22:01:27.215Z,102697.88
2022-12-01T22:04:01.651Z,102687.34
2022-12-01T22:06:36.064Z,102696.34
2022-12-01T22:09:14.479Z,102696.44
2022-12-01T22:11:43.050Z,102698.28
2022-12-01T22:14:15.528Z,102689.59
2022-12-01T22:16:45.219Z,102696.66
2022-12-01T22:19:28.801Z,102702.00
2022-12-01T22:22:10.699Z,102706.56
2022-12-01T22:24:56.095Z,102704.78
2022-12-01T22:27:35.896Z,102696.16
2022-12-01T22:30:02.477Z,102699.44
2022-12-01T22:32:44.480Z,102680.50
2022-12-01T22:35:17.192Z,102707.16
2022-12-01T22:38:07.084Z,102702.59
2022-12-01T22:40:36.630Z,102690.75
2022-12-01T22:43:18.246Z,102697.94
2022-12-01T22:45:49.355Z,102685.63
2022-12-01T22:48:36.230Z,102707.22
2022-12-01T22:51:18.013Z,102701.97
2022-12-01T22:53:46.161Z,102693.03
2022-12-01T22:56:34.683Z,102701.16
2022-12-01T22:59:10.603Z,102705.88
2022-12-01T23:02:02.177Z,102689.75
2022-12-01T23:04:33.310Z,102700.28
2022-12-01T23:07:08.799Z,102700.94
2022-12-01T23:09:41.285Z,102701.03
2022-12-01T23:12:10.812Z,102699.19
2022-12-01T23:14:44.541Z,102677.97
2022-12-01T23:17:26.798Z,102687.53
2022-12-01T23:20:02.428Z,102693.75
2022-12-01T23:22:31.328Z,102694.72
2022-12-01T23:25:14.014Z,102684.75
2022-12-01T23:27:42.216Z,102682.78
2022-12-01T23:30:13.095Z,102689.06
2022-12-01T23:32:40.074Z,102670.41
2022-12-01T23:35:13.410Z,102677.34
2022-12-01T23:37:42.507Z,102673.06
2022-12-01T23:40:20.513Z,102670.50
2022-12-01T23:42:47.984Z,102665.28
2022-12-01T23:45:23.367Z,102680.34
2022-12-01T23:47:51.439Z,102673.19
2022-12-01T23:50:24.454Z,102666.00
2022-12-01T23:52:51.574Z,102669.84
2022-12-01T23:55:27.286Z,102660.91
2022-12-01T23:57:54.209Z,102666.31
